sensor_id;sensor_type;location;lat;lon;timestamp;temperature;humidity
17200;DHT22;8716;52.268;20.968;2024-03-23T00:56:04;10.50;99.90
17200;DHT22;8716;52.268;20.968;2024-03-23T00:58:31;10.40;99.90
17200;DHT22;8716;52.268;20.968;2024-03-23T01:00:58;10.40;99.90
17200;DHT22;8716;52.268;20.968;2024-03-23T01:03:25;10.40;99.90
17200;DHT22;8716;52.268;20.968;2024-03-23T01:05:51;10.40;99.90
17200;DHT22;8716;52.268;20.968;2024-03-23T01:08:19;10.40;99.90
17200;DHT22;8716;52.268;20.968;2024-03-23T01:10:54;10.30;99.90
17200;DHT22;8716;52.268;20.968;2024-03-23T01:13:23;10.30;99.90
17200;DHT22;8716;52.268;20.968;2024-03-23T01:15:49;10.30;99.90
17200;DHT22;8716;52.268;20.968;2024-03-23T01:18:17;10.30;99.90
17200;DHT22;8716;52.268;20.968;2024-03-23T01:20:43;10.20;99.90
17200;DHT22;8716;52.268;20.968;2024-03-23T01:23:11;10.20;99.90
17200;DHT22;8716;52.268;20.968;2024-03-23T01:25:37;10.20;99.90
17200;DHT22;8716;52.268;20.968;2024-03-23T01:28:05;10.20;99.90
17200;DHT22;8716;52.268;20.968;2024-03-23T01:30:36;10.20;99.90
17200;DHT22;8716;52.268;20.968;2024-03-23T01:33:03;10.20;99.90
17200;DHT22;8716;52.268;20.968;2024-03-23T01:35:29;10.20;99.90
17200;DHT22;8716;52.268;20.968;2024-03-23T01:37:56;10.10;99.90
17200;DHT22;8716;52.268;20.968;2024-03-23T01:40:23;10.10;99.90
17200;DHT22;8716;52.268;20.968;2024-03-23T01:42:55;10.10;99.90
17200;DHT22;8716;52.268;20.968;2024-03-23T01:45:22;10.20;99.90
17200;DHT22;8716;52.268;20.968;2024-03-23T01:47:51;10.20;99.90
17200;DHT22;8716;52.268;20.968;2024-03-23T01:50:18;10.20;99.90
17200;DHT22;8716;52.268;20.968;2024-03-23T01:52:48;10.20;99.90
17200;DHT22;8716;52.268;20.968;2024-03-23T01:55:15;10.10;99.90
17200;DHT22;8716;52.268;20.968;2024-03-23T01:57:42;10.10;99.90
17200;DHT22;8716;52.268;20.968;2024-03-23T02:00:09;10.10;99.90
17200;DHT22;8716;52.268;20.968;2024-03-23T02:02:42;10.10;99.90
17200;DHT22;8716;52.268;20.968;2024-03-23T02:05:10;10.10;99.90
17200;DHT22;8716;52.268;20.968;2024-03-23T02:07:38;10.10;99.90
17200;DHT22;8716;52.268;20.968;2024-03-23T02:10:06;10.10;99.90
17200;DHT22;8716;52.268;20.968;2024-03-23T02:12:33;10.10;99.90
17200;DHT22;8716;52.268;20.968;2024-03-23T02:15:02;10.10;99.90
17200;DHT22;8716;52.268;20.968;2024-03-23T02:17:33;10.10;99.90
17200;DHT22;8716;52.268;20.968;2024-03-23T02:19:59;10.00;99.90
17200;DHT22;8716;52.268;20.968;2024-03-23T02:22:36;10.10;99.90
17200;DHT22;8716;52.268;20.968;2024-03-23T02:25:04;10.20;99.90
17200;DHT22;8716;52.268;20.968;2024-03-23T02:27:31;10.10;99.90
17200;DHT22;8716;52.268;20.968;2024-03-23T02:29:57;10.00;99.90
17200;DHT22;8716;52.268;20.968;2024-03-23T02:32:25;10.10;99.90
17200;DHT22;8716;52.268;20.968;2024-03-23T02:34:53;10.10;99.90
17200;DHT22;8716;52.268;20.968;2024-03-23T02:37:20;10.10;99.90
17200;DHT22;8716;52.268;20.968;2024-03-23T02:39:48;10.10;99.90
17200;DHT22;8716;52.268;20.968;2024-03-23T02:42:17;10.10;99.90
17200;DHT22;8716;52.268;20.968;2024-03-23T02:44:44;10.10;99.90
17200;DHT22;8716;52.268;20.968;2024-03-23T02:47:11;10.20;99.90
17200;DHT22;8716;52.268;20.968;2024-03-23T02:49:38;10.20;99.90
17200;DHT22;8716;52.268;20.968;2024-03-23T02:52:05;10.20;99.90
17200;DHT22;8716;52.268;20.968;2024-03-23T02:54:34;10.20;99.90
17200;DHT22;8716;52.268;20.968;2024-03-23T02:57:03;10.10;99.90
17200;DHT22;8716;52.268;20.968;2024-03-23T02:59:32;10.20;99.90
17200;DHT22;8716;52.268;20.968;2024-03-23T03:01:59;10.20;99.90
17200;DHT22;8716;52.268;20.968;2024-03-23T03:04:26;10.20;99.90
17200;DHT22;8716;52.268;20.968;2024-03-23T03:06:53;10.20;99.90
17200;DHT22;8716;52.268;20.968;2024-03-23T03:09:19;10.20;99.90
17200;DHT22;8716;52.268;20.968;2024-03-23T03:11:47;10.10;99.90
17200;DHT22;8716;52.268;20.968;2024-03-23T03:14:13;10.20;99.90
17200;DHT22;8716;52.268;20.968;2024-03-23T03:16:42;10.20;99.90
17200;DHT22;8716;52.268;20.968;2024-03-23T03:19:08;10.20;99.90
17200;DHT22;8716;52.268;20.968;2024-03-23T03:21:36;10.10;99.90
17200;DHT22;8716;52.268;20.968;2024-03-23T03:24:03;10.10;99.90
17200;DHT22;8716;52.268;20.968;2024-03-23T03:26:30;10.10;99.90
17200;DHT22;8716;52.268;20.968;2024-03-23T03:28:57;10.20;99.90
17200;DHT22;8716;52.268;20.968;2024-03-23T03:31:24;10.20;99.90
17200;DHT22;8716;52.268;20.968;2024-03-23T03:33:51;10.20;99.90
17200;DHT22;8716;52.268;20.968;2024-03-23T03:36:19;10.20;99.90
17200;DHT22;8716;52.268;20.968;2024-03-23T03:38:46;10.20;99.90
17200;DHT22;8716;52.268;20.968;2024-03-23T03:41:13;10.20;99.90
17200;DHT22;8716;52.268;20.968;2024-03-23T03:43:39;10.20;99.90
17200;DHT22;8716;52.268;20.968;2024-03-23T03:46:06;10.20;99.90
17200;DHT22;8716;52.268;20.968;2024-03-23T03:48:34;10.20;99.90
17200;DHT22;8716;52.268;20.968;2024-03-23T03:51:03;10.20;99.90
17200;DHT22;8716;52.268;20.968;2024-03-23T03:53:29;10.20;99.90
17200;DHT22;8716;52.268;20.968;2024-03-23T03:56:01;10.20;99.90
17200;DHT22;8716;52.268;20.968;2024-03-23T03:58:27;10.20;99.90
17200;DHT22;8716;52.268;20.968;2024-03-23T04:00:55;10.20;99.90
17200;DHT22;8716;52.268;20.968;2024-03-23T04:03:21;10.20;99.90
17200;DHT22;8716;52.268;20.968;2024-03-23T04:05:51;10.30;99.90
17200;DHT22;8716;52.268;20.968;2024-03-23T04:08:19;10.20;99.90
17200;DHT22;8716;52.268;20.968;2024-03-23T04:10:47;10.20;99.90
17200;DHT22;8716;52.268;20.968;2024-03-23T04:13:13;10.30;99.90
17200;DHT22;8716;52.268;20.968;2024-03-23T04:15:40;10.20;99.90
17200;DHT22;8716;52.268;20.968;2024-03-23T04:18:07;10.20;99.90
17200;DHT22;8716;52.268;20.968;2024-03-23T04:20:34;10.20;99.90
17200;DHT22;8716;52.268;20.968;2024-03-23T04:23:01;10.20;99.90
17200;DHT22;8716;52.268;20.968;2024-03-23T04:25:31;10.20;99.90
17200;DHT22;8716;52.268;20.968;2024-03-23T04:27:58;10.20;99.90
17200;DHT22;8716;52.268;20.968;2024-03-23T04:30:24;10.20;99.90
17200;DHT22;8716;52.268;20.968;2024-03-23T04:32:54;10.20;99.90
17200;DHT22;8716;52.268;20.968;2024-03-23T04:35:20;10.20;99.90
17200;DHT22;8716;52.268;20.968;2024-03-23T04:37:48;10.20;99.90
17200;DHT22;8716;52.268;20.968;2024-03-23T04:40:15;10.30;99.90
17200;DHT22;8716;52.268;20.968;2024-03-23T04:42:44;10.20;99.90
17200;DHT22;8716;52.268;20.968;2024-03-23T04:45:11;10.30;99.90
17200;DHT22;8716;52.268;20.968;2024-03-23T04:47:38;10.30;99.90
17200;DHT22;8716;52.268;20.968;2024-03-23T04:50:06;10.30;99.90
17200;DHT22;8716;52.268;20.968;2024-03-23T04:52:33;10.30;99.90
17200;DHT22;8716;52.268;20.968;2024-03-23T04:55:01;10.30;99.90
17200;DHT22;8716;52.268;20.968;2024-03-23T04:57:29;10.30;99.90
17200;DHT22;8716;52.268;20.968;2024-03-23T04:59:57;10.30;99.90
17200;DHT22;8716;52.268;20.968;2024-03-23T05:02:24;10.20;99.90
17200;DHT22;8716;52.268;20.968;2024-03-23T05:04:54;10.30;99.90
17200;DHT22;8716;52.268;20.968;2024-03-23T05:07:21;10.30;99.90
17200;DHT22;8716;52.268;20.968;2024-03-23T05:09:48;10.20;99.90
17200;DHT22;8716;52.268;20.968;2024-03-23T05:12:15;10.30;99.90
17200;DHT22;8716;52.268;20.968;2024-03-23T05:14:41;10.30;99.90
17200;DHT22;8716;52.268;20.968;2024-03-23T05:17:10;10.40;99.90
17200;DHT22;8716;52.268;20.968;2024-03-23T05:19:36;10.40;99.90
17200;DHT22;8716;52.268;20.968;2024-03-23T05:22:03;10.40;99.90
17200;DHT22;8716;52.268;20.968;2024-03-23T05:24:30;10.40;99.90
17200;DHT22;8716;52.268;20.968;2024-03-23T05:26:57;10.40;99.90
17200;DHT22;8716;52.268;20.968;2024-03-23T05:29:25;10.40;99.90
17200;DHT22;8716;52.268;20.968;2024-03-23T05:31:52;10.40;99.90
17200;DHT22;8716;52.268;20.968;2024-03-23T05:34:22;10.40;99.90
17200;DHT22;8716;52.268;20.968;2024-03-23T05:36:52;10.40;99.90
17200;DHT22;8716;52.268;20.968;2024-03-23T05:39:18;10.50;99.90
17200;DHT22;8716;52.268;20.968;2024-03-23T05:41:48;10.40;99.90
17200;DHT22;8716;52.268;20.968;2024-03-23T05:44:14;10.40;99.90
17200;DHT22;8716;52.268;20.968;2024-03-23T05:46:41;10.40;99.90
17200;DHT22;8716;52.268;20.968;2024-03-23T05:49:08;10.40;99.90
17200;DHT22;8716;52.268;20.968;2024-03-23T05:51:37;10.40;99.90
17200;DHT22;8716;52.268;20.968;2024-03-23T05:54:03;10.40;99.90
17200;DHT22;8716;52.268;20.968;2024-03-23T05:56:30;10.40;99.90
17200;DHT22;8716;52.268;20.968;2024-03-23T05:58:57;10.40;99.90
17200;DHT22;8716;52.268;20.968;2024-03-23T06:01:24;10.40;99.90
17200;DHT22;8716;52.268;20.968;2024-03-23T06:03:50;10.40;99.90
17200;DHT22;8716;52.268;20.968;2024-03-23T06:06:19;10.50;99.90
17200;DHT22;8716;52.268;20.968;2024-03-23T06:08:47;10.40;99.90
17200;DHT22;8716;52.268;20.968;2024-03-23T06:11:17;10.40;99.90
17200;DHT22;8716;52.268;20.968;2024-03-23T06:13:46;10.40;99.90
17200;DHT22;8716;52.268;20.968;2024-03-23T06:16:13;10.40;99.90
17200;DHT22;8716;52.268;20.968;2024-03-23T06:18:39;10.50;99.90
17200;DHT22;8716;52.268;20.968;2024-03-23T06:21:13;10.50;99.90
17200;DHT22;8716;52.268;20.968;2024-03-23T06:23:40;10.50;99.90
17200;DHT22;8716;52.268;20.968;2024-03-23T06:26:08;10.60;99.90
17200;DHT22;8716;52.268;20.968;2024-03-23T06:28:35;10.50;99.90
17200;DHT22;8716;52.268;20.968;2024-03-23T06:31:02;10.50;99.90
17200;DHT22;8716;52.268;20.968;2024-03-23T06:33:28;10.60;99.90
17200;DHT22;8716;52.268;20.968;2024-03-23T06:35:56;10.60;99.90
17200;DHT22;8716;52.268;20.968;2024-03-23T06:38:22;10.60;99.90
17200;DHT22;8716;52.268;20.968;2024-03-23T06:40:51;10.60;99.90
17200;DHT22;8716;52.268;20.968;2024-03-23T06:43:20;10.60;99.90
17200;DHT22;8716;52.268;20.968;2024-03-23T06:45:52;10.60;99.90
17200;DHT22;8716;52.268;20.968;2024-03-23T06:48:19;10.60;99.90
17200;DHT22;8716;52.268;20.968;2024-03-23T06:50:46;10.60;99.90
17200;DHT22;8716;52.268;20.968;2024-03-23T06:53:13;10.70;99.90
17200;DHT22;8716;52.268;20.968;2024-03-23T06:55:40;10.70;99.90
17200;DHT22;8716;52.268;20.968;2024-03-23T06:58:07;10.70;99.90
17200;DHT22;8716;52.268;20.968;2024-03-23T07:00:37;10.80;99.90
17200;DHT22;8716;52.268;20.968;2024-03-23T07:03:03;10.70;99.90
17200;DHT22;8716;52.268;20.968;2024-03-23T07:05:32;10.80;99.90
17200;DHT22;8716;52.268;20.968;2024-03-23T07:07:59;10.80;99.90
17200;DHT22;8716;52.268;20.968;2024-03-23T07:10:26;10.80;99.90
17200;DHT22;8716;52.268;20.968;2024-03-23T07:12:52;10.80;99.90
17200;DHT22;8716;52.268;20.968;2024-03-23T07:15:22;10.90;99.90
17200;DHT22;8716;52.268;20.968;2024-03-23T07:17:49;10.90;99.90
17200;DHT22;8716;52.268;20.968;2024-03-23T07:20:17;10.90;99.90
17200;DHT22;8716;52.268;20.968;2024-03-23T07:22:45;10.80;99.90
17200;DHT22;8716;52.268;20.968;2024-03-23T07:25:12;10.80;99.90
17200;DHT22;8716;52.268;20.968;2024-03-23T07:27:38;10.80;99.90
17200;DHT22;8716;52.268;20.968;2024-03-23T07:30:07;10.80;99.90
17200;DHT22;8716;52.268;20.968;2024-03-23T07:32:34;10.80;99.90
17200;DHT22;8716;52.268;20.968;2024-03-23T07:35:04;10.80;99.90
17200;DHT22;8716;52.268;20.968;2024-03-23T07:37:30;10.80;99.90
17200;DHT22;8716;52.268;20.968;2024-03-23T07:39:57;10.80;99.90
17200;DHT22;8716;52.268;20.968;2024-03-23T07:42:26;10.80;99.90
17200;DHT22;8716;52.268;20.968;2024-03-23T07:44:53;10.80;99.90
17200;DHT22;8716;52.268;20.968;2024-03-23T07:47:22;10.80;99.90
17200;DHT22;8716;52.268;20.968;2024-03-23T07:49:50;10.80;99.90
17200;DHT22;8716;52.268;20.968;2024-03-23T07:52:18;10.80;99.90
17200;DHT22;8716;52.268;20.968;2024-03-23T07:54:45;10.80;99.90
17200;DHT22;8716;52.268;20.968;2024-03-23T07:57:11;10.80;99.90
17200;DHT22;8716;52.268;20.968;2024-03-23T07:59:39;10.80;99.90
17200;DHT22;8716;52.268;20.968;2024-03-23T08:02:05;10.80;99.90
17200;DHT22;8716;52.268;20.968;2024-03-23T08:04:32;10.80;99.90
17200;DHT22;8716;52.268;20.968;2024-03-23T08:06:58;10.90;99.90
17200;DHT22;8716;52.268;20.968;2024-03-23T08:09:27;10.90;99.90
17200;DHT22;8716;52.268;20.968;2024-03-23T08:11:53;11.10;99.90
17200;DHT22;8716;52.268;20.968;2024-03-23T08:14:23;11.20;99.90
17200;DHT22;8716;52.268;20.968;2024-03-23T08:16:49;11.20;99.90
17200;DHT22;8716;52.268;20.968;2024-03-23T08:19:17;11.20;99.90
17200;DHT22;8716;52.268;20.968;2024-03-23T08:21:43;11.20;99.90
17200;DHT22;8716;52.268;20.968;2024-03-23T08:24:13;11.30;99.90
17200;DHT22;8716;52.268;20.968;2024-03-23T08:26:40;11.40;99.90
17200;DHT22;8716;52.268;20.968;2024-03-23T08:29:08;11.40;99.90
17200;DHT22;8716;52.268;20.968;2024-03-23T08:31:34;11.40;99.90
17200;DHT22;8716;52.268;20.968;2024-03-23T08:34:01;11.50;99.90
17200;DHT22;8716;52.268;20.968;2024-03-23T08:36:27;11.50;99.90
17200;DHT22;8716;52.268;20.968;2024-03-23T08:38:56;11.50;99.90
17200;DHT22;8716;52.268;20.968;2024-03-23T08:41:23;11.60;99.90
17200;DHT22;8716;52.268;20.968;2024-03-23T08:43:52;11.70;99.90
17200;DHT22;8716;52.268;20.968;2024-03-23T08:46:19;11.90;99.90
17200;DHT22;8716;52.268;20.968;2024-03-23T08:48:46;12.30;99.90
17200;DHT22;8716;52.268;20.968;2024-03-23T08:51:16;13.10;99.90
17200;DHT22;8716;52.268;20.968;2024-03-23T08:53:45;14.30;99.90
17200;DHT22;8716;52.268;20.968;2024-03-23T08:56:12;15.20;99.90
17200;DHT22;8716;52.268;20.968;2024-03-23T08:58:39;15.60;99.90
17200;DHT22;8716;52.268;20.968;2024-03-23T09:01:10;15.80;99.90
17200;DHT22;8716;52.268;20.968;2024-03-23T09:03:39;16.00;99.90
17200;DHT22;8716;52.268;20.968;2024-03-23T09:06:07;16.00;99.90
17200;DHT22;8716;52.268;20.968;2024-03-23T09:08:34;16.10;99.90
17200;DHT22;8716;52.268;20.968;2024-03-23T09:11:04;16.40;99.90
17200;DHT22;8716;52.268;20.968;2024-03-23T09:13:33;16.80;99.90
17200;DHT22;8716;52.268;20.968;2024-03-23T09:15:59;17.00;99.90
17200;DHT22;8716;52.268;20.968;2024-03-23T09:18:31;17.10;99.90
17200;DHT22;8716;52.268;20.968;2024-03-23T09:20:58;17.10;99.90
17200;DHT22;8716;52.268;20.968;2024-03-23T09:23:29;16.90;99.90
17200;DHT22;8716;52.268;20.968;2024-03-23T09:25:55;16.90;99.90
17200;DHT22;8716;52.268;20.968;2024-03-23T09:28:25;16.70;99.90
17200;DHT22;8716;52.268;20.968;2024-03-23T09:30:51;16.50;99.90
17200;DHT22;8716;52.268;20.968;2024-03-23T09:33:18;16.30;99.90
17200;DHT22;8716;52.268;20.968;2024-03-23T09:35:48;16.40;99.90
17200;DHT22;8716;52.268;20.968;2024-03-23T09:38:16;16.40;99.90
17200;DHT22;8716;52.268;20.968;2024-03-23T09:40:43;16.40;99.90
17200;DHT22;8716;52.268;20.968;2024-03-23T09:43:10;16.80;99.90
17200;DHT22;8716;52.268;20.968;2024-03-23T09:45:39;17.00;99.90
17200;DHT22;8716;52.268;20.968;2024-03-23T09:48:08;16.90;99.90
17200;DHT22;8716;52.268;20.968;2024-03-23T09:50:36;16.90;99.90
17200;DHT22;8716;52.268;20.968;2024-03-23T09:53:06;16.80;99.90
17200;DHT22;8716;52.268;20.968;2024-03-23T09:55:33;16.90;99.90
17200;DHT22;8716;52.268;20.968;2024-03-23T09:58:01;17.30;99.90
17200;DHT22;8716;52.268;20.968;2024-03-23T10:00:28;18.20;99.90
17200;DHT22;8716;52.268;20.968;2024-03-23T10:02:58;19.10;99.90
17200;DHT22;8716;52.268;20.968;2024-03-23T10:05:28;19.70;99.90
17200;DHT22;8716;52.268;20.968;2024-03-23T10:07:57;19.90;99.90
17200;DHT22;8716;52.268;20.968;2024-03-23T10:10:26;20.20;99.90
17200;DHT22;8716;52.268;20.968;2024-03-23T10:12:53;20.50;99.90
17200;DHT22;8716;52.268;20.968;2024-03-23T10:15:22;20.70;99.90
17200;DHT22;8716;52.268;20.968;2024-03-23T10:17:50;21.20;99.90
17200;DHT22;8716;52.268;20.968;2024-03-23T10:20:19;21.80;99.90
17200;DHT22;8716;52.268;20.968;2024-03-23T10:22:48;22.50;99.90
17200;DHT22;8716;52.268;20.968;2024-03-23T10:25:15;23.10;99.90
17200;DHT22;8716;52.268;20.968;2024-03-23T10:27:43;23.70;99.90
17200;DHT22;8716;52.268;20.968;2024-03-23T10:30:12;24.30;99.90
17200;DHT22;8716;52.268;20.968;2024-03-23T10:32:40;24.70;99.90
17200;DHT22;8716;52.268;20.968;2024-03-23T10:35:17;25.40;99.90
17200;DHT22;8716;52.268;20.968;2024-03-23T10:37:45;25.60;99.90
17200;DHT22;8716;52.268;20.968;2024-03-23T10:40:13;25.20;99.90
17200;DHT22;8716;52.268;20.968;2024-03-23T10:42:40;25.50;99.90
17200;DHT22;8716;52.268;20.968;2024-03-23T10:45:09;25.70;99.90
17200;DHT22;8716;52.268;20.968;2024-03-23T10:47:37;26.10;99.80
17200;DHT22;8716;52.268;20.968;2024-03-23T10:50:04;26.30;98.00
17200;DHT22;8716;52.268;20.968;2024-03-23T10:52:32;26.00;97.90
17200;DHT22;8716;52.268;20.968;2024-03-23T10:55:00;25.80;98.10
17200;DHT22;8716;52.268;20.968;2024-03-23T10:57:34;26.10;98.20
17200;DHT22;8716;52.268;20.968;2024-03-23T11:00:03;26.10;96.00
17200;DHT22;8716;52.268;20.968;2024-03-23T11:02:32;25.90;97.30
17200;DHT22;8716;52.268;20.968;2024-03-23T11:05:01;26.00;97.20
17200;DHT22;8716;52.268;20.968;2024-03-23T11:07:31;26.10;96.10
17200;DHT22;8716;52.268;20.968;2024-03-23T11:10:00;25.90;95.60
17200;DHT22;8716;52.268;20.968;2024-03-23T11:12:32;25.90;96.10
17200;DHT22;8716;52.268;20.968;2024-03-23T11:15:04;26.00;97.20
17200;DHT22;8716;52.268;20.968;2024-03-23T11:17:33;26.30;95.10
17200;DHT22;8716;52.268;20.968;2024-03-23T11:20:00;26.40;94.00
17200;DHT22;8716;52.268;20.968;2024-03-23T11:22:41;26.00;93.30
17200;DHT22;8716;52.268;20.968;2024-03-23T11:25:15;25.60;94.00
17200;DHT22;8716;52.268;20.968;2024-03-23T11:27:44;25.50;94.40
17200;DHT22;8716;52.268;20.968;2024-03-23T11:30:14;25.00;93.50
17200;DHT22;8716;52.268;20.968;2024-03-23T11:32:43;24.40;94.40
17200;DHT22;8716;52.268;20.968;2024-03-23T11:35:09;24.00;95.20
17200;DHT22;8716;52.268;20.968;2024-03-23T11:37:37;23.90;95.90
17200;DHT22;8716;52.268;20.968;2024-03-23T11:40:20;23.80;95.90
17200;DHT22;8716;52.268;20.968;2024-03-23T11:42:55;23.60;95.80
17200;DHT22;8716;52.268;20.968;2024-03-23T11:45:21;23.20;96.20
17200;DHT22;8716;52.268;20.968;2024-03-23T11:48:02;22.70;97.20
17200;DHT22;8716;52.268;20.968;2024-03-23T11:50:28;22.30;97.50
17200;DHT22;8716;52.268;20.968;2024-03-23T11:53:06;21.90;97.60
17200;DHT22;8716;52.268;20.968;2024-03-23T11:55:39;21.60;98.40
17200;DHT22;8716;52.268;20.968;2024-03-23T11:58:07;21.40;99.30
17200;DHT22;8716;52.268;20.968;2024-03-23T12:00:36;21.50;99.70
17200;DHT22;8716;52.268;20.968;2024-03-23T12:03:07;21.60;99.30
17200;DHT22;8716;52.268;20.968;2024-03-23T12:05:37;21.30;98.10
17200;DHT22;8716;52.268;20.968;2024-03-23T12:08:22;21.00;97.90
17200;DHT22;8716;52.268;20.968;2024-03-23T12:10:51;20.70;98.10
17200;DHT22;8716;52.268;20.968;2024-03-23T12:13:20;20.40;99.00
17200;DHT22;8716;52.268;20.968;2024-03-23T12:15:47;20.30;99.30
17200;DHT22;8716;52.268;20.968;2024-03-23T12:18:23;20.20;99.90
17200;DHT22;8716;52.268;20.968;2024-03-23T12:20:50;20.20;98.90
17200;DHT22;8716;52.268;20.968;2024-03-23T12:23:17;20.20;99.20
17200;DHT22;8716;52.268;20.968;2024-03-23T12:25:48;20.10;99.00
17200;DHT22;8716;52.268;20.968;2024-03-23T12:28:18;20.00;99.30
17200;DHT22;8716;52.268;20.968;2024-03-23T12:30:47;19.90;99.60
17200;DHT22;8716;52.268;20.968;2024-03-23T12:33:14;19.80;99.70
17200;DHT22;8716;52.268;20.968;2024-03-23T12:35:42;19.60;99.40
17200;DHT22;8716;52.268;20.968;2024-03-23T12:38:09;19.50;99.80
17200;DHT22;8716;52.268;20.968;2024-03-23T12:40:35;19.30;99.90
17200;DHT22;8716;52.268;20.968;2024-03-23T12:43:04;19.20;99.90
17200;DHT22;8716;52.268;20.968;2024-03-23T12:45:30;19.10;99.90
17200;DHT22;8716;52.268;20.968;2024-03-23T12:47:57;19.00;99.90
17200;DHT22;8716;52.268;20.968;2024-03-23T12:50:23;18.90;99.90
17200;DHT22;8716;52.268;20.968;2024-03-23T12:52:54;18.80;99.90
17200;DHT22;8716;52.268;20.968;2024-03-23T12:55:20;18.70;99.90
17200;DHT22;8716;52.268;20.968;2024-03-23T12:57:48;18.60;99.90
17200;DHT22;8716;52.268;20.968;2024-03-23T13:00:18;18.40;99.90
17200;DHT22;8716;52.268;20.968;2024-03-23T13:02:46;18.30;99.90
17200;DHT22;8716;52.268;20.968;2024-03-23T13:05:12;18.30;99.90
17200;DHT22;8716;52.268;20.968;2024-03-23T13:07:39;18.20;99.90
17200;DHT22;8716;52.268;20.968;2024-03-23T13:10:09;18.10;99.90
17200;DHT22;8716;52.268;20.968;2024-03-23T13:12:36;18.10;99.90
17200;DHT22;8716;52.268;20.968;2024-03-23T13:15:03;18.10;99.90
17200;DHT22;8716;52.268;20.968;2024-03-23T13:17:30;18.10;99.90
17200;DHT22;8716;52.268;20.968;2024-03-23T13:19:56;18.10;99.90
17200;DHT22;8716;52.268;20.968;2024-03-23T13:22:24;18.00;99.90
17200;DHT22;8716;52.268;20.968;2024-03-23T13:24:50;17.90;99.90
17200;DHT22;8716;52.268;20.968;2024-03-23T13:27:18;17.90;99.90
17200;DHT22;8716;52.268;20.968;2024-03-23T13:29:45;17.80;99.90
17200;DHT22;8716;52.268;20.968;2024-03-23T13:32:12;17.80;99.90
17200;DHT22;8716;52.268;20.968;2024-03-23T13:34:39;17.70;99.90
17200;DHT22;8716;52.268;20.968;2024-03-23T13:37:06;17.80;99.90
17200;DHT22;8716;52.268;20.968;2024-03-23T13:39:33;17.70;99.90
17200;DHT22;8716;52.268;20.968;2024-03-23T13:42:00;17.70;99.90
17200;DHT22;8716;52.268;20.968;2024-03-23T13:44:28;17.70;99.90
17200;DHT22;8716;52.268;20.968;2024-03-23T13:46:55;17.60;99.90
17200;DHT22;8716;52.268;20.968;2024-03-23T13:49:26;17.60;99.90
17200;DHT22;8716;52.268;20.968;2024-03-23T13:51:54;17.60;99.90
17200;DHT22;8716;52.268;20.968;2024-03-23T13:54:21;17.60;99.90
17200;DHT22;8716;52.268;20.968;2024-03-23T13:56:51;17.60;99.90
17200;DHT22;8716;52.268;20.968;2024-03-23T13:59:17;17.60;99.90
17200;DHT22;8716;52.268;20.968;2024-03-23T14:01:46;17.60;99.90
17200;DHT22;8716;52.268;20.968;2024-03-23T14:04:12;17.50;99.90
17200;DHT22;8716;52.268;20.968;2024-03-23T14:06:41;17.30;99.90
17200;DHT22;8716;52.268;20.968;2024-03-23T14:09:07;17.30;99.90
17200;DHT22;8716;52.268;20.968;2024-03-23T14:11:36;17.20;99.90
17200;DHT22;8716;52.268;20.968;2024-03-23T14:14:03;17.10;99.90
17200;DHT22;8716;52.268;20.968;2024-03-23T14:16:31;17.10;99.90
17200;DHT22;8716;52.268;20.968;2024-03-23T14:18:58;17.00;99.90
17200;DHT22;8716;52.268;20.968;2024-03-23T14:21:26;16.90;99.90
17200;DHT22;8716;52.268;20.968;2024-03-23T14:23:52;16.90;99.90
17200;DHT22;8716;52.268;20.968;2024-03-23T14:26:21;16.80;99.90
17200;DHT22;8716;52.268;20.968;2024-03-23T14:28:47;16.70;99.90
17200;DHT22;8716;52.268;20.968;2024-03-23T14:31:15;16.60;99.90
17200;DHT22;8716;52.268;20.968;2024-03-23T14:33:41;16.50;99.90
17200;DHT22;8716;52.268;20.968;2024-03-23T14:36:14;16.50;99.90
17200;DHT22;8716;52.268;20.968;2024-03-23T14:38:40;16.50;99.90
17200;DHT22;8716;52.268;20.968;2024-03-23T14:41:08;16.50;99.90
17200;DHT22;8716;52.268;20.968;2024-03-23T14:43:34;16.50;99.90
17200;DHT22;8716;52.268;20.968;2024-03-23T14:46:10;16.50;99.90
17200;DHT22;8716;52.268;20.968;2024-03-23T14:48:40;16.50;99.90
17200;DHT22;8716;52.268;20.968;2024-03-23T14:51:10;16.50;99.90
17200;DHT22;8716;52.268;20.968;2024-03-23T14:53:40;16.50;99.90
17200;DHT22;8716;52.268;20.968;2024-03-23T14:56:08;16.40;99.90
17200;DHT22;8716;52.268;20.968;2024-03-23T14:58:36;16.40;99.90
17200;DHT22;8716;52.268;20.968;2024-03-23T15:01:05;16.30;99.90
17200;DHT22;8716;52.268;20.968;2024-03-23T15:03:34;16.20;99.90
17200;DHT22;8716;52.268;20.968;2024-03-23T15:06:02;16.10;99.90
17200;DHT22;8716;52.268;20.968;2024-03-23T15:08:28;16.00;99.90
17200;DHT22;8716;52.268;20.968;2024-03-23T15:11:00;15.80;99.90
17200;DHT22;8716;52.268;20.968;2024-03-23T15:13:31;15.70;99.90
17200;DHT22;8716;52.268;20.968;2024-03-23T15:15:58;15.60;99.90
17200;DHT22;8716;52.268;20.968;2024-03-23T15:18:24;15.50;99.90
17200;DHT22;8716;52.268;20.968;2024-03-23T15:20:53;15.30;99.90
17200;DHT22;8716;52.268;20.968;2024-03-23T15:23:21;15.20;99.90
17200;DHT22;8716;52.268;20.968;2024-03-23T15:25:54;15.00;99.90
17200;DHT22;8716;52.268;20.968;2024-03-23T15:28:22;14.90;99.90
17200;DHT22;8716;52.268;20.968;2024-03-23T15:30:52;14.80;99.90
17200;DHT22;8716;52.268;20.968;2024-03-23T15:33:18;14.60;99.90
17200;DHT22;8716;52.268;20.968;2024-03-23T15:35:48;14.50;99.90
17200;DHT22;8716;52.268;20.968;2024-03-23T15:38:14;14.30;99.90
17200;DHT22;8716;52.268;20.968;2024-03-23T15:40:51;14.20;99.90
17200;DHT22;8716;52.268;20.968;2024-03-23T15:43:17;14.20;99.90
17200;DHT22;8716;52.268;20.968;2024-03-23T15:45:53;14.10;99.90
17200;DHT22;8716;52.268;20.968;2024-03-23T15:48:20;13.90;99.90
17200;DHT22;8716;52.268;20.968;2024-03-23T15:50:51;13.80;99.90
17200;DHT22;8716;52.268;20.968;2024-03-23T15:53:21;13.70;99.90
17200;DHT22;8716;52.268;20.968;2024-03-23T15:55:53;13.60;99.90
17200;DHT22;8716;52.268;20.968;2024-03-23T15:58:20;13.40;99.90
17200;DHT22;8716;52.268;20.968;2024-03-23T16:00:55;13.20;99.90
17200;DHT22;8716;52.268;20.968;2024-03-23T16:03:24;13.00;99.90
17200;DHT22;8716;52.268;20.968;2024-03-23T16:05:53;12.80;99.90
17200;DHT22;8716;52.268;20.968;2024-03-23T16:08:19;12.70;99.90
17200;DHT22;8716;52.268;20.968;2024-03-23T16:10:49;12.60;99.90
17200;DHT22;8716;52.268;20.968;2024-03-23T16:13:19;12.50;99.90
17200;DHT22;8716;52.268;20.968;2024-03-23T16:15:55;12.50;99.90
17200;DHT22;8716;52.268;20.968;2024-03-23T16:18:22;12.50;99.90
17200;DHT22;8716;52.268;20.968;2024-03-23T16:20:53;12.50;99.90
17200;DHT22;8716;52.268;20.968;2024-03-23T16:23:20;12.50;99.90
17200;DHT22;8716;52.268;20.968;2024-03-23T16:25:48;12.40;99.90
17200;DHT22;8716;52.268;20.968;2024-03-23T16:28:23;12.40;99.90
17200;DHT22;8716;52.268;20.968;2024-03-23T16:30:59;12.40;99.90